createdAt,value
2022-09-28T00:01:28.920Z,4.03
2022-09-28T00:04:02.757Z,1.95
2022-09-28T00:06:36.757Z,2.10
2022-09-28T00:09:10.789Z,1.60
2022-09-28T00:11:43.834Z,2.38
2022-09-28T00:14:17.771Z,2.13
2022-09-28T00:16:51.803Z,1.75
2022-09-28T00:19:25.760Z,2.03
2022-09-28T00:21:52.687Z,2.70
2022-09-28T00:24:27.778Z,2.15
2022-09-28T00:26:56.524Z,2.90
2022-09-28T00:29:40.819Z,1.63
2022-09-28T00:32:16.759Z,5.10
2022-09-28T00:34:44.031Z,1.92
2022-09-28T00:37:17.762Z,2.88
2022-09-28T00:39:44.776Z,2.53
2022-09-28T00:42:23.769Z,1.90
2022-09-28T00:44:58.279Z,1.55
2022-09-28T00:47:59.762Z,3.85
2022-09-28T00:50:36.779Z,1.70
2022-09-28T00:53:14.236Z,1.52
2022-09-28T00:56:03.766Z,1.83
2022-09-28T00:58:32.155Z,2.58
2022-09-28T01:01:05.803Z,1.58
2022-09-28T01:03:38.763Z,1.30
2022-09-28T01:06:05.810Z,2.45
2022-09-28T01:08:39.826Z,1.33
2022-09-28T01:11:06.678Z,1.92
2022-09-28T01:13:33.591Z,1.77
2022-09-28T01:16:12.879Z,1.55
2022-09-28T01:19:03.290Z,1.30
2022-09-28T01:21:36.777Z,1.80
2022-09-28T01:24:42.202Z,1.40
2022-09-28T01:27:34.819Z,1.38
2022-09-28T01:30:15.139Z,1.20
2022-09-28T01:33:04.814Z,2.75
2022-09-28T01:35:48.733Z,1.25
2022-09-28T01:38:31.827Z,1.15
2022-09-28T01:40:58.900Z,0.85
2022-09-28T01:43:34.782Z,0.95
2022-09-28T01:46:19.314Z,2.08
2022-09-28T01:49:04.825Z,1.08
2022-09-28T01:51:39.915Z,1.55
2022-09-28T01:54:20.803Z,1.13
2022-09-28T01:56:57.976Z,0.80
2022-09-28T01:59:35.824Z,1.00
2022-09-28T02:02:20.893Z,1.23
2022-09-28T02:05:14.846Z,1.10
2022-09-28T02:08:12.836Z,1.73
2022-09-28T02:11:09.827Z,1.60
2022-09-28T02:13:43.693Z,1.60
2022-09-28T02:16:50.803Z,2.22
2022-09-28T02:19:24.366Z,1.08
2022-09-28T02:22:04.822Z,1.20
2022-09-28T02:25:06.990Z,2.55
2022-09-28T02:28:08.829Z,1.17
2022-09-28T02:30:38.311Z,1.20
2022-09-28T02:33:24.883Z,0.82
2022-09-28T02:35:51.795Z,1.05
2022-09-28T02:38:24.849Z,1.20
2022-09-28T02:41:39.862Z,0.95
2022-09-28T02:44:43.346Z,0.80
2022-09-28T02:47:37.894Z,0.70
2022-09-28T02:50:35.602Z,1.10
2022-09-28T02:53:52.867Z,0.63
2022-09-28T02:57:26.862Z,0.77
2022-09-28T02:59:58.202Z,1.27
2022-09-28T03:02:38.832Z,0.73
2022-09-28T03:05:27.982Z,0.80
2022-09-28T03:08:10.464Z,1.83
2022-09-28T03:10:48.996Z,0.60
2022-09-28T03:13:24.089Z,0.93
2022-09-28T03:15:51.145Z,0.90
2022-09-28T03:18:29.566Z,1.70
2022-09-28T03:20:56.454Z,2.00
2022-09-28T03:23:29.969Z,1.10
2022-09-28T03:25:56.887Z,1.58
2022-09-28T03:28:23.824Z,0.77
2022-09-28T03:30:56.884Z,0.80
2022-09-28T03:33:29.843Z,3.85
2022-09-28T03:36:02.862Z,1.85
2022-09-28T03:38:29.765Z,0.90
2022-09-28T03:41:04.858Z,0.55
2022-09-28T03:43:37.898Z,1.55
2022-09-28T03:46:11.920Z,2.92
2022-09-28T03:48:40.036Z,1.88
2022-09-28T03:51:13.879Z,1.25
2022-09-28T03:53:40.862Z,0.80
2022-09-28T03:56:17.891Z,0.60
2022-09-28T03:58:44.805Z,1.45
2022-09-28T04:01:20.071Z,0.88
2022-09-28T04:03:53.911Z,0.57
2022-09-28T04:06:26.883Z,1.05
2022-09-28T04:08:53.847Z,0.60
2022-09-28T04:11:26.988Z,4.20
2022-09-28T04:13:53.954Z,2.22
2022-09-28T04:16:20.870Z,1.00
2022-09-28T04:18:53.869Z,2.20
2022-09-28T04:21:20.883Z,1.35
2022-09-28T04:23:53.876Z,2.20
2022-09-28T04:26:30.856Z,2.13
2022-09-28T04:29:06.533Z,0.85
2022-09-28T04:32:00.378Z,0.82
2022-09-28T04:34:37.149Z,0.82
2022-09-28T04:37:05.623Z,1.95
2022-09-28T04:39:38.854Z,2.08
2022-09-28T04:42:05.818Z,0.90
2022-09-28T04:44:38.881Z,0.77
2022-09-28T04:47:05.797Z,1.15
2022-09-28T04:49:38.882Z,0.82
2022-09-28T04:52:18.041Z,1.00
2022-09-28T04:54:45.438Z,1.25
2022-09-28T04:57:18.895Z,1.95
2022-09-28T04:59:45.734Z,1.10
2022-09-28T05:02:18.975Z,3.35
2022-09-28T05:04:45.915Z,0.90
2022-09-28T05:07:16.863Z,1.75
2022-09-28T05:09:53.970Z,3.03
2022-09-28T05:12:21.188Z,1.00
2022-09-28T05:14:54.909Z,1.65
2022-09-28T05:17:27.931Z,3.03
2022-09-28T05:19:54.854Z,1.00
2022-09-28T05:22:21.716Z,1.08
2022-09-28T05:24:54.954Z,2.28
2022-09-28T05:27:28.959Z,1.38
2022-09-28T05:29:55.961Z,1.35
2022-09-28T05:32:28.906Z,1.77
2022-09-28T05:34:55.910Z,1.10
2022-09-28T05:37:28.907Z,1.35
2022-09-28T05:39:55.723Z,1.88
2022-09-28T05:42:28.917Z,1.58
2022-09-28T05:44:55.781Z,1.33
2022-09-28T05:47:28.910Z,2.33
2022-09-28T05:49:55.958Z,1.67
2022-09-28T05:52:22.822Z,2.22
2022-09-28T05:54:55.914Z,1.48
2022-09-28T05:57:22.859Z,1.20
2022-09-28T05:59:55.940Z,1.00
2022-09-28T06:02:28.977Z,1.92
2022-09-28T06:04:55.921Z,1.02
2022-09-28T06:07:22.787Z,2.35
2022-09-28T06:09:55.956Z,3.15
2022-09-28T06:12:23.002Z,1.00
2022-09-28T06:14:55.980Z,2.40
2022-09-28T06:17:28.940Z,4.15
2022-09-28T06:19:55.992Z,0.60
2022-09-28T06:22:28.931Z,1.95
2022-09-28T06:24:55.765Z,1.05
2022-09-28T06:27:22.608Z,1.63
2022-09-28T06:29:55.946Z,0.68
2022-09-28T06:32:22.859Z,1.23
2022-09-28T06:34:56.552Z,1.00
2022-09-28T06:37:23.622Z,0.90
2022-09-28T06:39:56.954Z,2.50
2022-09-28T06:42:23.827Z,1.58
2022-09-28T06:44:50.787Z,1.17
2022-09-28T06:47:23.957Z,2.15
2022-09-28T06:49:50.797Z,2.50
2022-09-28T06:52:24.060Z,1.98
2022-09-28T06:54:51.477Z,1.58
2022-09-28T06:57:25.017Z,2.63
2022-09-28T06:59:57.954Z,1.33
2022-09-28T07:02:31.388Z,1.95
2022-09-28T07:05:05.142Z,2.28
2022-09-28T07:07:32.373Z,3.33
2022-09-28T07:10:05.959Z,3.53
2022-09-28T07:12:35.614Z,2.75
2022-09-28T07:15:02.821Z,3.00
2022-09-28T07:17:45.772Z,3.33
2022-09-28T07:20:19.748Z,3.15
2022-09-28T07:22:53.060Z,6.18
2022-09-28T07:25:20.356Z,4.15
2022-09-28T07:27:54.037Z,2.03
2022-09-28T07:30:21.305Z,1.40
2022-09-28T07:32:48.399Z,1.30
2022-09-28T07:35:25.011Z,3.38
2022-09-28T07:38:06.907Z,3.40
2022-09-28T07:40:44.080Z,3.45
2022-09-28T07:43:20.357Z,2.15
2022-09-28T07:45:48.553Z,3.03
2022-09-28T07:48:22.991Z,2.78
2022-09-28T07:50:54.687Z,1.88
2022-09-28T07:53:30.000Z,2.83
2022-09-28T07:55:58.725Z,2.17
2022-09-28T07:58:25.606Z,1.73
2022-09-28T08:00:59.082Z,2.67
2022-09-28T08:03:25.962Z,2.55
2022-09-28T08:06:07.058Z,1.75
2022-09-28T08:08:41.015Z,2.28
2022-09-28T08:11:14.017Z,1.95
2022-09-28T08:13:40.875Z,1.15
2022-09-28T08:16:14.118Z,2.35
2022-09-28T08:18:49.581Z,2.58
2022-09-28T08:21:26.088Z,2.78
2022-09-28T08:23:53.267Z,1.55
2022-09-28T08:26:27.125Z,2.35
2022-09-28T08:28:54.409Z,2.67
2022-09-28T08:31:28.090Z,1.98
2022-09-28T08:33:55.208Z,2.53
2022-09-28T08:36:22.481Z,3.05
2022-09-28T08:38:56.113Z,4.30
2022-09-28T08:41:39.174Z,4.95
2022-09-28T08:44:29.115Z,5.88
2022-09-28T08:47:11.140Z,5.07
2022-09-28T08:49:44.922Z,6.15
2022-09-28T08:52:34.188Z,6.50
2022-09-28T08:55:04.849Z,4.63
2022-09-28T08:57:59.115Z,4.15
2022-09-28T09:00:51.239Z,5.03
2022-09-28T09:03:42.071Z,7.10
2022-09-28T09:06:36.476Z,4.95
2022-09-28T09:09:38.054Z,4.65
2022-09-28T09:12:21.502Z,5.53
2022-09-28T09:15:44.062Z,6.03
2022-09-28T09:18:38.486Z,4.13
2022-09-28T09:21:41.089Z,5.28
2022-09-28T09:24:41.339Z,5.30
2022-09-28T09:27:45.187Z,7.15
2022-09-28T09:30:20.602Z,6.57
2022-09-28T09:33:07.154Z,4.22
2022-09-28T09:35:52.986Z,4.22
2022-09-28T09:38:56.127Z,4.25
2022-09-28T09:41:30.538Z,4.95
2022-09-28T09:44:28.129Z,4.20
2022-09-28T09:47:11.407Z,4.38
2022-09-28T09:50:10.183Z,7.15
2022-09-28T09:52:49.911Z,4.28
2022-09-28T09:55:43.137Z,4.72
2022-09-28T09:58:32.892Z,7.78
2022-09-28T10:01:15.280Z,5.13
2022-09-28T10:03:44.945Z,4.68
2022-09-28T10:06:28.451Z,7.18
2022-09-28T10:09:10.348Z,4.80
2022-09-28T10:11:51.263Z,3.90
2022-09-28T10:14:20.560Z,4.90
2022-09-28T10:16:56.241Z,5.20
2022-09-28T10:19:39.329Z,4.97
2022-09-28T10:22:13.284Z,5.28
2022-09-28T10:24:48.942Z,4.15
2022-09-28T10:27:38.322Z,4.85
2022-09-28T10:30:11.399Z,5.05
2022-09-28T10:32:50.132Z,6.90
2022-09-28T10:35:29.125Z,6.50
2022-09-28T10:38:23.237Z,5.35
2022-09-28T10:41:01.238Z,5.15
2022-09-28T10:43:33.646Z,3.65
2022-09-28T10:46:27.276Z,3.60
2022-09-28T10:49:15.108Z,5.10
2022-09-28T10:51:59.249Z,7.22
2022-09-28T10:54:31.072Z,9.18
2022-09-28T10:57:05.145Z,5.93
2022-09-28T10:59:36.835Z,8.15
2022-09-28T11:02:19.217Z,4.63
2022-09-28T11:04:55.367Z,8.75
2022-09-28T11:07:34.152Z,6.22
2022-09-28T11:10:01.215Z,8.98
2022-09-28T11:12:50.193Z,7.00
2022-09-28T11:15:25.799Z,8.65
2022-09-28T11:18:02.096Z,4.38
2022-09-28T11:20:41.162Z,5.90
2022-09-28T11:23:30.181Z,6.45
2022-09-28T11:26:17.682Z,3.97
2022-09-28T11:28:45.640Z,6.13
2022-09-28T11:31:12.677Z,7.95
2022-09-28T11:33:49.334Z,5.85
2022-09-28T11:36:23.165Z,5.03
2022-09-28T11:39:25.172Z,5.03
2022-09-28T11:42:04.167Z,4.95
2022-09-28T11:44:50.204Z,5.28
2022-09-28T11:47:52.165Z,4.65
2022-09-28T11:51:09.247Z,4.20
2022-09-28T11:54:00.159Z,5.80
2022-09-28T11:56:52.235Z,5.28
2022-09-28T11:59:42.197Z,5.38
2022-09-28T12:02:26.245Z,5.15
2022-09-28T12:05:02.192Z,5.75
2022-09-28T12:07:51.950Z,7.22
2022-09-28T12:11:18.197Z,6.38
2022-09-28T12:13:56.194Z,4.75
2022-09-28T12:17:04.858Z,5.60
2022-09-28T12:19:59.181Z,6.50
2022-09-28T12:22:33.491Z,6.20
2022-09-28T12:25:07.196Z,6.15
2022-09-28T12:28:01.144Z,7.18
2022-09-28T12:30:39.244Z,6.80
2022-09-28T12:33:08.958Z,7.28
2022-09-28T12:36:16.255Z,5.88
2022-09-28T12:39:27.212Z,6.30
2022-09-28T12:42:29.292Z,6.18
2022-09-28T12:45:59.735Z,5.38
2022-09-28T12:49:51.502Z,7.07
2022-09-28T12:52:02.274Z,6.70
2022-09-28T12:55:15.795Z,7.45
2022-09-28T12:58:39.201Z,6.80
2022-09-28T13:01:27.322Z,5.95
2022-09-28T13:04:42.297Z,6.40
2022-09-28T13:07:26.845Z,6.18
2022-09-28T13:10:18.249Z,5.85
2022-09-28T13:13:30.261Z,5.45
2022-09-28T13:16:02.863Z,6.03
2022-09-28T13:19:10.224Z,6.35
2022-09-28T13:22:06.635Z,5.70
2022-09-28T13:24:43.232Z,4.75
2022-09-28T13:27:14.851Z,6.80
2022-09-28T13:29:51.254Z,5.47
2022-09-28T13:32:18.123Z,6.95
2022-09-28T13:34:55.264Z,6.80
2022-09-28T13:37:25.013Z,7.60
2022-09-28T13:40:05.319Z,5.57
2022-09-28T13:42:48.580Z,9.65
2022-09-28T13:45:28.297Z,6.82
2022-09-28T13:48:17.157Z,6.15
2022-09-28T13:51:19.282Z,6.82
2022-09-28T13:54:10.646Z,10.85
2022-09-28T13:57:10.243Z,7.47
2022-09-28T14:00:03.302Z,7.20
2022-09-28T14:02:55.314Z,9.60
2022-09-28T14:05:44.479Z,6.78
2022-09-28T14:08:30.318Z,7.63
2022-09-28T14:11:18.001Z,7.78
2022-09-28T14:13:51.288Z,13.48
2022-09-28T14:16:26.818Z,6.93
2022-09-28T14:19:30.299Z,8.00
2022-09-28T14:22:23.560Z,8.75
2022-09-28T14:25:31.246Z,9.18
2022-09-28T14:28:26.654Z,7.22
2022-09-28T14:31:01.315Z,5.00
2022-09-28T14:33:37.328Z,7.47
2022-09-28T14:36:08.677Z,8.77
2022-09-28T14:38:53.273Z,7.03
2022-09-28T14:41:31.304Z,9.38
2022-09-28T14:44:08.294Z,10.93
2022-09-28T14:46:45.070Z,6.63
2022-09-28T14:49:24.351Z,7.80
2022-09-28T14:51:54.159Z,7.63
2022-09-28T14:54:29.324Z,10.45
2022-09-28T14:57:27.376Z,9.18
2022-09-28T15:00:01.303Z,9.23
2022-09-28T15:02:32.519Z,6.95
2022-09-28T15:05:22.504Z,8.45
2022-09-28T15:07:51.619Z,7.30
2022-09-28T15:10:38.322Z,8.20
2022-09-28T15:13:19.527Z,9.05
2022-09-28T15:15:56.494Z,8.75
2022-09-28T15:18:57.421Z,10.00
2022-09-28T15:21:37.432Z,13.10
2022-09-28T15:24:26.800Z,11.63
2022-09-28T15:27:00.349Z,10.45
2022-09-28T15:29:27.456Z,7.50
2022-09-28T15:31:54.809Z,10.60
2022-09-28T15:34:41.491Z,10.82
2022-09-28T15:37:15.512Z,9.88
2022-09-28T15:39:42.607Z,11.75
2022-09-28T15:42:09.650Z,10.02
2022-09-28T15:44:46.359Z,8.77
2022-09-28T15:47:28.031Z,9.52
2022-09-28T15:50:07.446Z,9.20
2022-09-28T15:52:46.103Z,7.88
2022-09-28T15:55:42.408Z,10.55
2022-09-28T15:58:22.999Z,8.73
2022-09-28T16:00:58.404Z,8.35
2022-09-28T16:03:29.358Z,9.73
2022-09-28T16:06:06.398Z,9.85
2022-09-28T16:08:36.132Z,10.30
2022-09-28T16:11:34.428Z,10.95
2022-09-28T16:14:18.207Z,9.85
2022-09-28T16:17:00.282Z,8.98
2022-09-28T16:19:29.736Z,6.60
2022-09-28T16:22:07.378Z,8.60
2022-09-28T16:24:36.402Z,7.05
2022-09-28T16:27:13.354Z,7.40
2022-09-28T16:29:41.599Z,7.50
2022-09-28T16:32:33.409Z,10.05
2022-09-28T16:35:23.416Z,8.30
2022-09-28T16:38:08.986Z,9.05
2022-09-28T16:40:47.463Z,7.95
2022-09-28T16:43:25.814Z,7.13
2022-09-28T16:46:11.535Z,11.75
2022-09-28T16:48:43.467Z,12.35
2022-09-28T16:51:10.365Z,10.27
2022-09-28T16:53:43.417Z,9.85
2022-09-28T16:56:17.407Z,10.05
2022-09-28T16:58:44.502Z,11.13
2022-09-28T17:01:18.425Z,10.18
2022-09-28T17:03:45.375Z,10.77
2022-09-28T17:06:18.349Z,12.00
2022-09-28T17:08:45.262Z,6.47
2022-09-28T17:11:25.442Z,5.47
2022-09-28T17:13:52.409Z,7.68
2022-09-28T17:16:49.717Z,12.25
2022-09-28T17:19:24.539Z,9.52
2022-09-28T17:21:58.404Z,8.02
2022-09-28T17:24:25.267Z,6.75
2022-09-28T17:26:52.281Z,8.48
2022-09-28T17:29:25.395Z,7.22
2022-09-28T17:31:58.384Z,6.38
2022-09-28T17:34:25.270Z,12.93
2022-09-28T17:36:58.383Z,9.38
2022-09-28T17:39:25.256Z,11.00
2022-09-28T17:41:52.090Z,13.52
2022-09-28T17:44:25.434Z,13.77
2022-09-28T17:46:52.302Z,10.15
2022-09-28T17:49:33.140Z,9.48
2022-09-28T17:52:00.767Z,8.85
2022-09-28T17:54:27.668Z,8.07
2022-09-28T17:57:01.401Z,7.35
2022-09-28T17:59:28.313Z,8.15
2022-09-28T18:02:02.564Z,10.23
2022-09-28T18:04:51.186Z,6.88
2022-09-28T18:07:25.410Z,8.30
2022-09-28T18:10:00.426Z,6.63
2022-09-28T18:12:33.445Z,7.13
2022-09-28T18:15:00.361Z,7.05
2022-09-28T18:17:33.470Z,6.97
2022-09-28T18:20:00.538Z,8.80
2022-09-28T18:22:33.532Z,12.60
2022-09-28T18:25:00.492Z,12.15
2022-09-28T18:27:37.430Z,19.23
2022-09-28T18:30:05.805Z,11.23
2022-09-28T18:32:42.418Z,8.75
2022-09-28T18:35:09.863Z,11.20
2022-09-28T18:37:46.442Z,7.03
2022-09-28T18:40:13.672Z,9.30
2022-09-28T18:42:47.544Z,8.80
2022-09-28T18:45:14.494Z,8.60
2022-09-28T18:47:41.387Z,7.70
2022-09-28T18:50:15.537Z,7.53
2022-09-28T18:52:44.012Z,12.75
2022-09-28T18:55:17.459Z,7.80
2022-09-28T18:57:44.517Z,10.40
2022-09-28T19:00:12.735Z,9.65
2022-09-28T19:02:46.690Z,7.28
2022-09-28T19:05:13.753Z,7.15
2022-09-28T19:07:47.488Z,9.30
2022-09-28T19:10:14.521Z,10.85
2022-09-28T19:12:47.452Z,6.47
2022-09-28T19:15:20.489Z,6.30
2022-09-28T19:17:47.391Z,7.25
2022-09-28T19:20:21.552Z,7.35
2022-09-28T19:22:51.559Z,7.00
2022-09-28T19:25:18.490Z,8.55
2022-09-28T19:27:51.523Z,8.15
2022-09-28T19:30:18.559Z,16.52
2022-09-28T19:32:51.627Z,5.95
2022-09-28T19:35:18.762Z,7.07
2022-09-28T19:37:52.499Z,6.90
2022-09-28T19:40:25.555Z,11.75
2022-09-28T19:42:59.567Z,9.05
2022-09-28T19:45:26.612Z,8.07
2022-09-28T19:48:00.527Z,8.25
2022-09-28T19:50:34.517Z,9.63
2022-09-28T19:53:07.499Z,8.15
2022-09-28T19:55:34.458Z,9.00
2022-09-28T19:58:07.504Z,10.55
2022-09-28T20:00:34.510Z,10.05
2022-09-28T20:03:01.531Z,11.02
2022-09-28T20:05:34.552Z,8.77
2022-09-28T20:08:04.692Z,8.80
2022-09-28T20:10:45.538Z,10.10
2022-09-28T20:13:12.486Z,8.43
2022-09-28T20:15:45.888Z,10.57
2022-09-28T20:18:19.529Z,7.93
2022-09-28T20:20:52.534Z,9.93
2022-09-28T20:23:19.483Z,11.25
2022-09-28T20:25:46.382Z,8.48
2022-09-28T20:28:20.613Z,9.85
2022-09-28T20:30:57.333Z,12.85
2022-09-28T20:33:28.825Z,11.57
2022-09-28T20:36:11.545Z,9.27
2022-09-28T20:42:10.582Z,10.30
2022-09-28T20:44:59.035Z,7.47
2022-09-28T20:47:32.547Z,7.30
2022-09-28T20:50:16.838Z,9.90
2022-09-28T20:53:09.385Z,9.10
2022-09-28T20:56:35.668Z,8.57
2022-09-28T21:03:42.745Z,11.90
2022-09-28T21:06:27.585Z,9.30
2022-09-28T21:09:35.270Z,9.60
2022-09-28T21:24:42.826Z,11.35
2022-09-28T21:27:54.340Z,8.15
2022-09-28T21:34:45.182Z,9.32
2022-09-28T21:37:34.108Z,14.90
2022-09-28T21:40:43.403Z,10.60
2022-09-28T21:44:27.715Z,12.48
2022-09-28T21:47:03.902Z,9.02
2022-09-28T21:49:38.942Z,8.82
2022-09-28T21:52:23.498Z,8.55
2022-09-28T21:54:50.415Z,7.43
2022-09-28T21:57:27.784Z,11.52
2022-09-28T22:00:04.235Z,9.32
2022-09-28T22:02:37.617Z,11.07
2022-09-28T22:05:05.300Z,14.02
2022-09-28T22:07:38.722Z,8.68
2022-09-28T22:10:07.525Z,7.93
2022-09-28T22:12:40.653Z,10.57
2022-09-28T22:15:08.442Z,11.85
2022-09-28T22:17:42.607Z,9.20
2022-09-28T22:20:09.825Z,9.77
2022-09-28T22:22:43.619Z,10.75
2022-09-28T22:25:10.813Z,9.48
2022-09-28T22:27:37.655Z,10.82
2022-09-28T22:30:11.581Z,8.90
2022-09-28T22:32:38.745Z,11.23
2022-09-28T22:35:12.590Z,8.82
2022-09-28T22:37:39.457Z,11.25
2022-09-28T22:40:13.584Z,8.48
2022-09-28T22:42:40.430Z,9.73
2022-09-28T22:45:14.569Z,9.05
2022-09-28T22:47:41.439Z,10.25
2022-09-28T22:50:15.593Z,9.25
2022-09-28T22:52:42.439Z,8.73
2022-09-28T22:55:15.609Z,9.40
2022-09-28T22:57:42.450Z,10.15
2022-09-28T23:00:16.592Z,9.82
2022-09-28T23:02:49.662Z,9.93
2022-09-28T23:05:16.583Z,9.68
2022-09-28T23:07:49.649Z,10.88
2022-09-28T23:10:16.641Z,9.32
2022-09-28T23:12:43.520Z,11.50
2022-09-28T23:15:17.614Z,9.02
2022-09-28T23:17:44.514Z,9.95
2022-09-28T23:20:11.367Z,14.40
2022-09-28T23:22:44.636Z,12.45
2022-09-28T23:25:11.506Z,8.95
2022-09-28T23:27:44.620Z,11.75
2022-09-28T23:30:11.824Z,9.23
2022-09-28T23:32:45.603Z,10.32
2022-09-28T23:35:13.161Z,10.20
2022-09-28T23:37:46.704Z,10.15
2022-09-28T23:40:13.931Z,12.75
2022-09-28T23:42:47.667Z,14.00
2022-09-28T23:45:14.657Z,10.88
2022-09-28T23:47:47.630Z,11.23
2022-09-28T23:50:20.662Z,10.52
2022-09-28T23:52:48.278Z,8.55
2022-09-28T23:55:21.654Z,13.27
2022-09-28T23:57:48.857Z,9.85
